sensor_id;sensor_type;location;lat;lon;timestamp;noise_LAeq;noise_LA_min;noise_LA_max;noise_LA01;noise_LA95
40103;Laerm;25814;48.550;9.108;2023-05-15T00:01:41;32.50;29.98;35.55;;
40103;Laerm;25814;48.550;9.108;2023-05-15T00:04:07;31.68;29.87;44.05;;
40103;Laerm;25814;48.550;9.108;2023-05-15T00:06:34;30.79;29.87;32.70;;
40103;Laerm;25814;48.550;9.108;2023-05-15T00:09:00;31.91;29.96;41.70;;
40103;Laerm;25814;48.550;9.108;2023-05-15T00:11:27;30.91;29.78;43.73;;
40103;Laerm;25814;48.550;9.108;2023-05-15T00:13:54;30.79;29.78;35.89;;
40103;Laerm;25814;48.550;9.108;2023-05-15T00:16:20;30.75;29.60;34.27;;
40103;Laerm;25814;48.550;9.108;2023-05-15T00:18:47;30.91;29.58;38.32;;
40103;Laerm;25814;48.550;9.108;2023-05-15T00:21:13;33.63;29.95;45.11;;
40103;Laerm;25814;48.550;9.108;2023-05-15T00:23:40;30.93;29.86;45.34;;
40103;Laerm;25814;48.550;9.108;2023-05-15T00:26:07;30.85;29.88;34.15;;
40103;Laerm;25814;48.550;9.108;2023-05-15T00:28:33;30.80;29.84;35.98;;
40103;Laerm;25814;48.550;9.108;2023-05-15T00:30:59;30.89;29.79;35.12;;
40103;Laerm;25814;48.550;9.108;2023-05-15T00:33:26;30.95;29.86;45.92;;
40103;Laerm;25814;48.550;9.108;2023-05-15T00:35:53;30.77;29.94;34.86;;
40103;Laerm;25814;48.550;9.108;2023-05-15T00:38:19;31.06;29.87;41.67;;
40103;Laerm;25814;48.550;9.108;2023-05-15T00:40:46;33.22;31.63;45.65;;
40103;Laerm;25814;48.550;9.108;2023-05-15T00:43:14;31.29;30.02;34.61;;
40103;Laerm;25814;48.550;9.108;2023-05-15T00:45:41;31.11;29.79;46.43;;
40103;Laerm;25814;48.550;9.108;2023-05-15T00:48:09;30.87;29.81;41.54;;
40103;Laerm;25814;48.550;9.108;2023-05-15T00:50:36;30.94;29.96;33.45;;
40103;Laerm;25814;48.550;9.108;2023-05-15T00:53:03;31.02;29.96;44.92;;
40103;Laerm;25814;48.550;9.108;2023-05-15T00:55:30;30.86;29.94;32.69;;
40103;Laerm;25814;48.550;9.108;2023-05-15T00:57:57;30.84;29.80;32.90;;
40103;Laerm;25814;48.550;9.108;2023-05-15T01:00:26;30.83;29.89;33.71;;
40103;Laerm;25814;48.550;9.108;2023-05-15T01:02:53;31.07;29.90;33.57;;
40103;Laerm;25814;48.550;9.108;2023-05-15T01:05:20;31.87;30.28;35.19;;
40103;Laerm;25814;48.550;9.108;2023-05-15T01:10:47;30.84;29.86;32.64;;
40103;Laerm;25814;48.550;9.108;2023-05-15T01:13:15;30.85;29.84;32.92;;
40103;Laerm;25814;48.550;9.108;2023-05-15T01:15:45;30.93;29.92;42.15;;
40103;Laerm;25814;48.550;9.108;2023-05-15T01:18:11;33.70;30.04;39.34;;
40103;Laerm;25814;48.550;9.108;2023-05-15T01:32:19;30.84;29.88;32.43;;
40103;Laerm;25814;48.550;9.108;2023-05-15T01:40:47;30.82;29.78;32.67;;
40103;Laerm;25814;48.550;9.108;2023-05-15T01:43:28;30.89;29.92;32.56;;
40103;Laerm;25814;48.550;9.108;2023-05-15T01:45:57;30.84;29.86;32.70;;
40103;Laerm;25814;48.550;9.108;2023-05-15T01:48:27;30.91;29.96;33.36;;
40103;Laerm;25814;48.550;9.108;2023-05-15T01:50:57;31.12;29.89;35.75;;
40103;Laerm;25814;48.550;9.108;2023-05-15T01:53:30;31.50;30.23;33.88;;
40103;Laerm;25814;48.550;9.108;2023-05-15T01:55:58;31.89;30.07;35.84;;
40103;Laerm;25814;48.550;9.108;2023-05-15T01:58:26;32.54;30.02;34.72;;
40103;Laerm;25814;48.550;9.108;2023-05-15T02:00:54;31.03;29.98;34.03;;
40103;Laerm;25814;48.550;9.108;2023-05-15T02:03:23;30.80;29.70;32.76;;
40103;Laerm;25814;48.550;9.108;2023-05-15T02:05:50;31.00;30.02;32.65;;
40103;Laerm;25814;48.550;9.108;2023-05-15T02:08:19;30.93;30.05;33.32;;
40103;Laerm;25814;48.550;9.108;2023-05-15T02:10:48;30.82;29.89;34.24;;
40103;Laerm;25814;48.550;9.108;2023-05-15T02:13:16;31.04;29.97;32.72;;
40103;Laerm;25814;48.550;9.108;2023-05-15T02:15:42;30.91;29.94;32.52;;
40103;Laerm;25814;48.550;9.108;2023-05-15T02:18:08;31.06;30.05;33.17;;
40103;Laerm;25814;48.550;9.108;2023-05-15T02:20:35;30.79;29.97;32.39;;
40103;Laerm;25814;48.550;9.108;2023-05-15T02:23:02;30.82;29.60;35.27;;
40103;Laerm;25814;48.550;9.108;2023-05-15T02:28:20;30.92;30.02;32.56;;
40103;Laerm;25814;48.550;9.108;2023-05-15T02:30:57;31.04;30.05;33.84;;
40103;Laerm;25814;48.550;9.108;2023-05-15T02:36:32;32.25;30.19;35.94;;
40103;Laerm;25814;48.550;9.108;2023-05-15T02:39:02;32.15;30.05;34.52;;
40103;Laerm;25814;48.550;9.108;2023-05-15T02:41:31;31.34;29.99;36.04;;
40103;Laerm;25814;48.550;9.108;2023-05-15T02:43:59;31.12;29.99;33.09;;
40103;Laerm;25814;48.550;9.108;2023-05-15T02:46:27;31.62;30.21;40.16;;
40103;Laerm;25814;48.550;9.108;2023-05-15T02:48:54;31.49;30.16;35.78;;
40103;Laerm;25814;48.550;9.108;2023-05-15T02:51:21;31.60;30.00;38.12;;
40103;Laerm;25814;48.550;9.108;2023-05-15T02:53:48;33.32;30.43;48.48;;
40103;Laerm;25814;48.550;9.108;2023-05-15T02:56:14;44.61;30.46;57.08;;
40103;Laerm;25814;48.550;9.108;2023-05-15T02:58:41;45.90;30.80;65.54;;
40103;Laerm;25814;48.550;9.108;2023-05-15T03:01:07;51.99;31.57;65.91;;
40103;Laerm;25814;48.550;9.108;2023-05-15T03:03:34;50.22;32.06;63.53;;
40103;Laerm;25814;48.550;9.108;2023-05-15T03:06:00;47.81;32.25;66.08;;
40103;Laerm;25814;48.550;9.108;2023-05-15T03:08:26;51.00;32.03;63.32;;
40103;Laerm;25814;48.550;9.108;2023-05-15T03:10:52;50.87;31.79;68.72;;
40103;Laerm;25814;48.550;9.108;2023-05-15T03:13:19;48.27;31.79;61.29;;
40103;Laerm;25814;48.550;9.108;2023-05-15T03:15:46;47.79;32.54;63.13;;
40103;Laerm;25814;48.550;9.108;2023-05-15T03:18:12;46.95;32.81;57.71;;
40103;Laerm;25814;48.550;9.108;2023-05-15T03:20:38;44.84;32.25;55.98;;
40103;Laerm;25814;48.550;9.108;2023-05-15T03:23:04;47.75;31.86;63.10;;
40103;Laerm;25814;48.550;9.108;2023-05-15T03:25:31;48.65;32.40;63.05;;
40103;Laerm;25814;48.550;9.108;2023-05-15T03:27:57;51.72;32.03;63.53;;
40103;Laerm;25814;48.550;9.108;2023-05-15T03:30:24;54.17;31.76;73.80;;
40103;Laerm;25814;48.550;9.108;2023-05-15T03:32:50;49.06;31.49;69.15;;
40103;Laerm;25814;48.550;9.108;2023-05-15T03:35:16;46.13;32.10;64.08;;
40103;Laerm;25814;48.550;9.108;2023-05-15T03:37:43;43.75;32.37;60.78;;
40103;Laerm;25814;48.550;9.108;2023-05-15T03:40:10;46.91;31.98;66.13;;
40103;Laerm;25814;48.550;9.108;2023-05-15T03:42:37;45.32;32.38;58.48;;
40103;Laerm;25814;48.550;9.108;2023-05-15T03:45:03;47.37;32.26;58.45;;
40103;Laerm;25814;48.550;9.108;2023-05-15T03:47:29;42.14;32.33;53.73;;
40103;Laerm;25814;48.550;9.108;2023-05-15T03:49:56;44.77;31.88;57.76;;
40103;Laerm;25814;48.550;9.108;2023-05-15T03:52:22;42.63;31.17;64.02;;
40103;Laerm;25814;48.550;9.108;2023-05-15T03:54:49;35.62;31.08;47.68;;
40103;Laerm;25814;48.550;9.108;2023-05-15T03:57:15;34.03;30.99;47.01;;
40103;Laerm;25814;48.550;9.108;2023-05-15T03:59:42;35.20;31.36;50.31;;
40103;Laerm;25814;48.550;9.108;2023-05-15T04:02:08;35.58;32.18;42.51;;
40103;Laerm;25814;48.550;9.108;2023-05-15T04:04:35;35.47;31.63;45.70;;
40103;Laerm;25814;48.550;9.108;2023-05-15T04:07:02;39.14;31.54;54.77;;
40103;Laerm;25814;48.550;9.108;2023-05-15T04:09:28;38.12;32.17;50.37;;
40103;Laerm;25814;48.550;9.108;2023-05-15T04:11:55;33.27;31.69;40.67;;
40103;Laerm;25814;48.550;9.108;2023-05-15T04:14:21;34.79;31.83;48.27;;
40103;Laerm;25814;48.550;9.108;2023-05-15T04:16:47;37.00;32.45;50.92;;
40103;Laerm;25814;48.550;9.108;2023-05-15T04:19:14;47.04;31.90;60.25;;
40103;Laerm;25814;48.550;9.108;2023-05-15T04:21:40;50.37;32.31;61.22;;
40103;Laerm;25814;48.550;9.108;2023-05-15T04:24:07;48.38;31.97;61.34;;
40103;Laerm;25814;48.550;9.108;2023-05-15T04:26:33;43.93;32.45;55.39;;
40103;Laerm;25814;48.550;9.108;2023-05-15T04:28:59;44.26;33.00;55.32;;
40103;Laerm;25814;48.550;9.108;2023-05-15T04:31:26;45.43;32.71;63.98;;
40103;Laerm;25814;48.550;9.108;2023-05-15T04:33:52;44.08;32.89;54.59;;
40103;Laerm;25814;48.550;9.108;2023-05-15T04:36:18;43.09;32.67;54.64;;
40103;Laerm;25814;48.550;9.108;2023-05-15T04:38:45;42.67;33.21;54.29;;
40103;Laerm;25814;48.550;9.108;2023-05-15T04:41:12;47.75;32.45;63.23;;
40103;Laerm;25814;48.550;9.108;2023-05-15T04:43:38;43.59;32.85;54.02;;
40103;Laerm;25814;48.550;9.108;2023-05-15T04:46:04;44.17;32.50;54.30;;
40103;Laerm;25814;48.550;9.108;2023-05-15T04:48:30;41.94;32.98;53.93;;
40103;Laerm;25814;48.550;9.108;2023-05-15T04:50:57;44.29;34.23;57.68;;
40103;Laerm;25814;48.550;9.108;2023-05-15T04:53:24;43.91;33.76;56.75;;
40103;Laerm;25814;48.550;9.108;2023-05-15T04:55:50;40.34;33.36;56.16;;
40103;Laerm;25814;48.550;9.108;2023-05-15T04:58:17;39.86;33.84;52.93;;
40103;Laerm;25814;48.550;9.108;2023-05-15T05:00:43;39.73;33.82;51.93;;
40103;Laerm;25814;48.550;9.108;2023-05-15T05:03:10;39.50;33.27;54.18;;
40103;Laerm;25814;48.550;9.108;2023-05-15T05:05:36;38.74;33.14;47.08;;
40103;Laerm;25814;48.550;9.108;2023-05-15T05:08:03;38.16;32.66;50.92;;
40103;Laerm;25814;48.550;9.108;2023-05-15T05:10:29;41.51;33.40;53.02;;
40103;Laerm;25814;48.550;9.108;2023-05-15T05:12:56;43.56;34.16;54.79;;
40103;Laerm;25814;48.550;9.108;2023-05-15T05:15:22;45.63;34.01;62.54;;
40103;Laerm;25814;48.550;9.108;2023-05-15T05:17:49;45.93;34.48;61.87;;
40103;Laerm;25814;48.550;9.108;2023-05-15T05:20:16;45.26;34.67;56.19;;
40103;Laerm;25814;48.550;9.108;2023-05-15T05:22:42;40.65;33.78;53.23;;
40103;Laerm;25814;48.550;9.108;2023-05-15T05:25:09;38.66;33.31;49.28;;
40103;Laerm;25814;48.550;9.108;2023-05-15T05:27:35;40.23;34.75;52.66;;
40103;Laerm;25814;48.550;9.108;2023-05-15T05:30:02;53.56;33.63;69.57;;
40103;Laerm;25814;48.550;9.108;2023-05-15T05:32:28;45.03;35.44;63.21;;
40103;Laerm;25814;48.550;9.108;2023-05-15T05:34:55;41.93;33.94;53.99;;
40103;Laerm;25814;48.550;9.108;2023-05-15T05:37:21;45.14;34.14;63.25;;
40103;Laerm;25814;48.550;9.108;2023-05-15T05:39:47;43.02;34.02;56.35;;
40103;Laerm;25814;48.550;9.108;2023-05-15T05:42:14;44.68;33.55;56.13;;
40103;Laerm;25814;48.550;9.108;2023-05-15T05:44:40;45.22;33.49;62.50;;
40103;Laerm;25814;48.550;9.108;2023-05-15T05:47:06;50.81;32.98;77.05;;
40103;Laerm;25814;48.550;9.108;2023-05-15T05:49:33;44.58;33.81;64.64;;
40103;Laerm;25814;48.550;9.108;2023-05-15T05:52:08;44.68;34.31;64.40;;
40103;Laerm;25814;48.550;9.108;2023-05-15T05:54:34;38.34;33.33;48.93;;
40103;Laerm;25814;48.550;9.108;2023-05-15T05:57:01;42.12;34.31;55.24;;
40103;Laerm;25814;48.550;9.108;2023-05-15T05:59:27;48.36;34.54;60.17;;
40103;Laerm;25814;48.550;9.108;2023-05-15T06:01:54;44.68;31.62;54.82;;
40103;Laerm;25814;48.550;9.108;2023-05-15T06:04:20;45.99;31.56;56.44;;
40103;Laerm;25814;48.550;9.108;2023-05-15T06:06:47;50.51;31.74;58.18;;
40103;Laerm;25814;48.550;9.108;2023-05-15T06:09:14;45.62;33.32;65.34;;
40103;Laerm;25814;48.550;9.108;2023-05-15T06:11:41;46.84;33.28;57.15;;
40103;Laerm;25814;48.550;9.108;2023-05-15T06:14:07;50.03;31.08;69.54;;
40103;Laerm;25814;48.550;9.108;2023-05-15T06:16:34;48.99;33.88;67.00;;
40103;Laerm;25814;48.550;9.108;2023-05-15T06:19:00;43.09;31.54;54.25;;
40103;Laerm;25814;48.550;9.108;2023-05-15T06:21:27;45.66;31.21;62.06;;
40103;Laerm;25814;48.550;9.108;2023-05-15T06:23:53;43.46;31.58;56.37;;
40103;Laerm;25814;48.550;9.108;2023-05-15T06:26:20;46.74;31.79;60.49;;
40103;Laerm;25814;48.550;9.108;2023-05-15T06:28:46;47.21;31.42;61.22;;
40103;Laerm;25814;48.550;9.108;2023-05-15T06:31:12;44.48;31.18;62.20;;
40103;Laerm;25814;48.550;9.108;2023-05-15T06:33:39;35.11;31.23;50.40;;
40103;Laerm;25814;48.550;9.108;2023-05-15T06:36:06;40.98;32.11;52.51;;
40103;Laerm;25814;48.550;9.108;2023-05-15T06:38:33;44.55;32.64;55.58;;
40103;Laerm;25814;48.550;9.108;2023-05-15T06:40:59;44.40;32.67;61.86;;
40103;Laerm;25814;48.550;9.108;2023-05-15T06:43:26;43.98;32.94;52.71;;
40103;Laerm;25814;48.550;9.108;2023-05-15T06:45:53;41.38;32.50;55.97;;
40103;Laerm;25814;48.550;9.108;2023-05-15T06:48:19;44.00;32.42;58.32;;
40103;Laerm;25814;48.550;9.108;2023-05-15T06:50:45;46.66;32.55;62.87;;
40103;Laerm;25814;48.550;9.108;2023-05-15T06:53:12;36.45;31.74;50.08;;
40103;Laerm;25814;48.550;9.108;2023-05-15T06:55:39;46.40;32.33;58.48;;
40103;Laerm;25814;48.550;9.108;2023-05-15T06:58:05;50.95;31.91;77.55;;
40103;Laerm;25814;48.550;9.108;2023-05-15T07:00:32;48.63;31.27;76.71;;
40103;Laerm;25814;48.550;9.108;2023-05-15T07:02:58;50.64;31.34;75.22;;
40103;Laerm;25814;48.550;9.108;2023-05-15T07:05:24;41.38;32.16;55.85;;
40103;Laerm;25814;48.550;9.108;2023-05-15T07:07:51;41.04;31.37;53.64;;
40103;Laerm;25814;48.550;9.108;2023-05-15T07:10:17;39.83;31.01;53.88;;
40103;Laerm;25814;48.550;9.108;2023-05-15T07:12:44;40.93;30.65;56.39;;
40103;Laerm;25814;48.550;9.108;2023-05-15T07:15:10;42.97;31.20;55.46;;
40103;Laerm;25814;48.550;9.108;2023-05-15T07:17:37;45.32;32.44;54.32;;
40103;Laerm;25814;48.550;9.108;2023-05-15T07:20:04;43.36;32.24;55.47;;
40103;Laerm;25814;48.550;9.108;2023-05-15T07:22:30;38.01;32.22;54.49;;
40103;Laerm;25814;48.550;9.108;2023-05-15T07:24:57;35.39;32.35;42.75;;
40103;Laerm;25814;48.550;9.108;2023-05-15T07:27:23;38.30;32.19;55.38;;
40103;Laerm;25814;48.550;9.108;2023-05-15T07:29:49;45.36;32.28;57.13;;
40103;Laerm;25814;48.550;9.108;2023-05-15T07:32:16;44.27;31.36;58.29;;
40103;Laerm;25814;48.550;9.108;2023-05-15T07:34:43;34.72;30.78;48.85;;
40103;Laerm;25814;48.550;9.108;2023-05-15T07:37:09;34.94;30.30;49.95;;
40103;Laerm;25814;48.550;9.108;2023-05-15T07:39:35;35.59;30.47;47.27;;
40103;Laerm;25814;48.550;9.108;2023-05-15T07:42:02;34.70;30.16;47.32;;
40103;Laerm;25814;48.550;9.108;2023-05-15T07:44:28;39.53;31.45;52.02;;
40103;Laerm;25814;48.550;9.108;2023-05-15T07:46:54;43.28;31.07;53.24;;
40103;Laerm;25814;48.550;9.108;2023-05-15T07:49:21;45.84;31.39;62.89;;
40103;Laerm;25814;48.550;9.108;2023-05-15T07:51:47;48.20;30.10;61.67;;
40103;Laerm;25814;48.550;9.108;2023-05-15T07:54:13;41.66;30.87;56.96;;
40103;Laerm;25814;48.550;9.108;2023-05-15T07:56:40;35.29;30.31;46.32;;
40103;Laerm;25814;48.550;9.108;2023-05-15T07:59:06;33.90;30.52;46.25;;
40103;Laerm;25814;48.550;9.108;2023-05-15T08:01:34;34.85;30.04;47.02;;
40103;Laerm;25814;48.550;9.108;2023-05-15T08:04:00;37.54;31.33;46.55;;
40103;Laerm;25814;48.550;9.108;2023-05-15T08:06:26;41.48;30.72;60.31;;
40103;Laerm;25814;48.550;9.108;2023-05-15T08:08:52;43.11;31.10;64.27;;
40103;Laerm;25814;48.550;9.108;2023-05-15T08:11:18;40.27;30.60;53.00;;
40103;Laerm;25814;48.550;9.108;2023-05-15T08:13:45;39.35;30.49;53.19;;
40103;Laerm;25814;48.550;9.108;2023-05-15T08:16:12;37.54;30.17;51.43;;
40103;Laerm;25814;48.550;9.108;2023-05-15T08:18:38;42.44;31.93;56.55;;
40103;Laerm;25814;48.550;9.108;2023-05-15T08:21:04;47.13;31.97;60.68;;
40103;Laerm;25814;48.550;9.108;2023-05-15T08:23:30;49.31;31.60;61.25;;
40103;Laerm;25814;48.550;9.108;2023-05-15T08:25:56;50.70;33.14;63.34;;
40103;Laerm;25814;48.550;9.108;2023-05-15T08:28:23;58.92;33.12;82.32;;
40103;Laerm;25814;48.550;9.108;2023-05-15T08:30:49;49.65;32.34;76.35;;
40103;Laerm;25814;48.550;9.108;2023-05-15T08:33:16;47.57;31.94;70.10;;
40103;Laerm;25814;48.550;9.108;2023-05-15T08:35:42;38.30;32.48;47.19;;
40103;Laerm;25814;48.550;9.108;2023-05-15T08:38:08;48.72;32.94;64.83;;
40103;Laerm;25814;48.550;9.108;2023-05-15T08:40:34;50.62;32.14;67.18;;
40103;Laerm;25814;48.550;9.108;2023-05-15T08:43:11;48.25;33.03;62.88;;
40103;Laerm;25814;48.550;9.108;2023-05-15T08:45:41;45.74;31.59;62.15;;
40103;Laerm;25814;48.550;9.108;2023-05-15T08:48:13;42.47;31.80;60.83;;
40103;Laerm;25814;48.550;9.108;2023-05-15T08:50:40;43.21;31.38;62.65;;
40103;Laerm;25814;48.550;9.108;2023-05-15T08:53:10;43.56;31.84;56.37;;
40103;Laerm;25814;48.550;9.108;2023-05-15T08:55:37;44.18;32.24;58.04;;
40103;Laerm;25814;48.550;9.108;2023-05-15T08:58:03;38.27;32.64;52.39;;
40103;Laerm;25814;48.550;9.108;2023-05-15T09:00:30;38.11;33.68;53.40;;
40103;Laerm;25814;48.550;9.108;2023-05-15T09:02:59;38.76;32.41;56.79;;
40103;Laerm;25814;48.550;9.108;2023-05-15T09:05:28;46.32;31.46;62.19;;
40103;Laerm;25814;48.550;9.108;2023-05-15T09:07:56;42.63;30.59;55.58;;
40103;Laerm;25814;48.550;9.108;2023-05-15T09:10:24;41.26;30.13;57.12;;
40103;Laerm;25814;48.550;9.108;2023-05-15T09:12:51;44.57;30.61;58.36;;
40103;Laerm;25814;48.550;9.108;2023-05-15T09:15:19;39.55;29.78;58.37;;
40103;Laerm;25814;48.550;9.108;2023-05-15T09:17:48;34.01;30.05;45.68;;
40103;Laerm;25814;48.550;9.108;2023-05-15T09:22:57;43.42;33.10;64.10;;
40103;Laerm;25814;48.550;9.108;2023-05-15T09:25:42;41.24;33.59;54.87;;
40103;Laerm;25814;48.550;9.108;2023-05-15T09:28:27;48.72;32.87;63.13;;
40103;Laerm;25814;48.550;9.108;2023-05-15T09:31:02;41.57;30.99;56.29;;
40103;Laerm;25814;48.550;9.108;2023-05-15T09:33:38;50.79;30.24;79.16;;
40103;Laerm;25814;48.550;9.108;2023-05-15T09:36:06;42.17;29.91;71.42;;
40103;Laerm;25814;48.550;9.108;2023-05-15T09:38:40;50.84;33.56;72.61;;
40103;Laerm;25814;48.550;9.108;2023-05-15T09:41:08;49.95;38.93;64.04;;
40103;Laerm;25814;48.550;9.108;2023-05-15T09:43:37;49.36;33.35;67.20;;
40103;Laerm;25814;48.550;9.108;2023-05-15T09:46:05;43.73;35.10;55.99;;
40103;Laerm;25814;48.550;9.108;2023-05-15T09:48:33;51.17;31.26;77.85;;
40103;Laerm;25814;48.550;9.108;2023-05-15T09:51:00;48.44;30.25;74.57;;
40103;Laerm;25814;48.550;9.108;2023-05-15T09:53:27;46.88;30.21;57.98;;
40103;Laerm;25814;48.550;9.108;2023-05-15T09:55:55;37.94;29.82;51.11;;
40103;Laerm;25814;48.550;9.108;2023-05-15T09:58:21;43.63;29.61;54.61;;
40103;Laerm;25814;48.550;9.108;2023-05-15T10:00:47;41.65;29.86;61.17;;
40103;Laerm;25814;48.550;9.108;2023-05-15T10:03:15;42.06;30.62;65.10;;
40103;Laerm;25814;48.550;9.108;2023-05-15T10:05:42;45.42;30.55;57.19;;
40103;Laerm;25814;48.550;9.108;2023-05-15T10:08:08;48.15;31.03;66.72;;
40103;Laerm;25814;48.550;9.108;2023-05-15T10:10:34;41.32;30.80;53.90;;
40103;Laerm;25814;48.550;9.108;2023-05-15T10:13:01;59.87;35.62;81.91;;
40103;Laerm;25814;48.550;9.108;2023-05-15T10:15:30;45.80;32.94;61.77;;
40103;Laerm;25814;48.550;9.108;2023-05-15T10:17:58;40.61;32.94;58.79;;
40103;Laerm;25814;48.550;9.108;2023-05-15T10:20:25;38.55;32.94;51.25;;
40103;Laerm;25814;48.550;9.108;2023-05-15T10:22:55;39.18;31.08;52.93;;
40103;Laerm;25814;48.550;9.108;2023-05-15T10:25:44;39.94;30.32;55.72;;
40103;Laerm;25814;48.550;9.108;2023-05-15T10:28:15;39.75;29.95;57.95;;
40103;Laerm;25814;48.550;9.108;2023-05-15T10:30:42;38.30;29.98;54.54;;
40103;Laerm;25814;48.550;9.108;2023-05-15T10:33:10;40.07;30.64;57.22;;
40103;Laerm;25814;48.550;9.108;2023-05-15T10:35:39;39.02;30.09;52.53;;
40103;Laerm;25814;48.550;9.108;2023-05-15T10:38:06;37.39;29.97;57.30;;
40103;Laerm;25814;48.550;9.108;2023-05-15T10:40:36;36.42;29.95;53.93;;
40103;Laerm;25814;48.550;9.108;2023-05-15T10:43:04;43.97;29.87;62.74;;
40103;Laerm;25814;48.550;9.108;2023-05-15T10:45:32;42.20;29.84;59.58;;
40103;Laerm;25814;48.550;9.108;2023-05-15T10:48:01;40.87;30.20;56.35;;
40103;Laerm;25814;48.550;9.108;2023-05-15T10:50:27;34.21;30.35;47.26;;
40103;Laerm;25814;48.550;9.108;2023-05-15T10:52:54;34.57;29.72;48.20;;
40103;Laerm;25814;48.550;9.108;2023-05-15T10:55:21;39.99;30.02;63.61;;
40103;Laerm;25814;48.550;9.108;2023-05-15T10:57:48;33.90;30.45;46.24;;
40103;Laerm;25814;48.550;9.108;2023-05-15T11:02:48;52.64;35.69;63.13;;
40103;Laerm;25814;48.550;9.108;2023-05-15T11:05:15;40.26;33.55;56.47;;
40103;Laerm;25814;48.550;9.108;2023-05-15T11:07:41;39.12;33.46;52.90;;
40103;Laerm;25814;48.550;9.108;2023-05-15T11:13:00;44.70;29.86;61.18;;
40103;Laerm;25814;48.550;9.108;2023-05-15T11:15:44;42.16;30.16;62.81;;
40103;Laerm;25814;48.550;9.108;2023-05-15T11:18:11;36.96;30.31;47.04;;
40103;Laerm;25814;48.550;9.108;2023-05-15T11:23:22;44.74;35.90;69.12;;
40103;Laerm;25814;48.550;9.108;2023-05-15T11:25:55;39.06;35.06;46.06;;
40103;Laerm;25814;48.550;9.108;2023-05-15T11:28:24;44.25;35.03;57.96;;
40103;Laerm;25814;48.550;9.108;2023-05-15T11:30:52;42.17;31.28;56.51;;
40103;Laerm;25814;48.550;9.108;2023-05-15T11:33:20;51.50;34.00;74.59;;
40103;Laerm;25814;48.550;9.108;2023-05-15T11:35:47;40.06;33.97;58.10;;
40103;Laerm;25814;48.550;9.108;2023-05-15T11:38:16;44.77;33.27;56.85;;
40103;Laerm;25814;48.550;9.108;2023-05-15T11:40:49;47.25;38.58;57.03;;
40103;Laerm;25814;48.550;9.108;2023-05-15T11:43:31;49.25;37.02;55.56;;
40103;Laerm;25814;48.550;9.108;2023-05-15T11:46:09;42.62;32.71;54.63;;
40103;Laerm;25814;48.550;9.108;2023-05-15T11:48:44;38.74;32.79;52.89;;
40103;Laerm;25814;48.550;9.108;2023-05-15T11:51:25;44.41;32.32;66.08;;
40103;Laerm;25814;48.550;9.108;2023-05-15T11:53:54;38.74;31.86;60.25;;
40103;Laerm;25814;48.550;9.108;2023-05-15T11:56:25;50.67;30.95;71.46;;
40103;Laerm;25814;48.550;9.108;2023-05-15T11:58:59;50.47;31.10;71.11;;
40103;Laerm;25814;48.550;9.108;2023-05-15T12:01:26;47.10;36.04;70.64;;
40103;Laerm;25814;48.550;9.108;2023-05-15T12:03:54;43.57;36.35;63.15;;
40103;Laerm;25814;48.550;9.108;2023-05-15T12:06:20;39.17;35.86;49.30;;
40103;Laerm;25814;48.550;9.108;2023-05-15T12:08:51;41.59;36.06;61.73;;
40103;Laerm;25814;48.550;9.108;2023-05-15T12:11:21;51.25;36.69;61.56;;
40103;Laerm;25814;48.550;9.108;2023-05-15T12:13:51;53.62;36.03;68.05;;
40103;Laerm;25814;48.550;9.108;2023-05-15T12:16:27;52.38;35.41;69.68;;
40103;Laerm;25814;48.550;9.108;2023-05-15T12:18:56;47.97;35.04;57.45;;
40103;Laerm;25814;48.550;9.108;2023-05-15T12:21:26;50.22;34.95;60.51;;
40103;Laerm;25814;48.550;9.108;2023-05-15T12:23:53;42.95;35.12;62.27;;
40103;Laerm;25814;48.550;9.108;2023-05-15T12:26:22;50.86;36.62;63.16;;
40103;Laerm;25814;48.550;9.108;2023-05-15T12:28:50;38.92;36.04;45.11;;
40103;Laerm;25814;48.550;9.108;2023-05-15T12:31:17;43.53;31.57;58.66;;
40103;Laerm;25814;48.550;9.108;2023-05-15T12:33:44;45.68;32.12;59.93;;
40103;Laerm;25814;48.550;9.108;2023-05-15T12:36:10;49.80;31.88;64.04;;
40103;Laerm;25814;48.550;9.108;2023-05-15T12:38:38;53.18;32.19;65.00;;
40103;Laerm;25814;48.550;9.108;2023-05-15T12:41:05;51.01;31.96;63.70;;
40103;Laerm;25814;48.550;9.108;2023-05-15T12:43:31;43.77;32.27;56.84;;
40103;Laerm;25814;48.550;9.108;2023-05-15T12:45:58;40.13;32.29;55.35;;
40103;Laerm;25814;48.550;9.108;2023-05-15T12:48:31;41.41;31.20;56.91;;
40103;Laerm;25814;48.550;9.108;2023-05-15T12:51:04;41.83;31.87;57.31;;
40103;Laerm;25814;48.550;9.108;2023-05-15T12:53:31;46.66;32.04;61.55;;
40103;Laerm;25814;48.550;9.108;2023-05-15T12:56:04;44.49;32.43;63.16;;
40103;Laerm;25814;48.550;9.108;2023-05-15T12:58:30;40.18;31.33;53.84;;
40103;Laerm;25814;48.550;9.108;2023-05-15T13:00:56;36.51;31.53;49.08;;
40103;Laerm;25814;48.550;9.108;2023-05-15T13:03:23;38.16;32.20;54.89;;
40103;Laerm;25814;48.550;9.108;2023-05-15T13:05:51;39.63;32.35;57.49;;
40103;Laerm;25814;48.550;9.108;2023-05-15T13:08:18;40.52;31.40;58.61;;
40103;Laerm;25814;48.550;9.108;2023-05-15T13:10:45;36.38;32.04;48.89;;
40103;Laerm;25814;48.550;9.108;2023-05-15T13:13:12;40.93;32.90;56.74;;
40103;Laerm;25814;48.550;9.108;2023-05-15T13:15:42;45.82;31.59;65.55;;
40103;Laerm;25814;48.550;9.108;2023-05-15T13:18:16;36.58;33.17;55.21;;
40103;Laerm;25814;48.550;9.108;2023-05-15T13:20:47;36.89;32.67;49.90;;
40103;Laerm;25814;48.550;9.108;2023-05-15T13:23:19;35.39;32.27;50.35;;
40103;Laerm;25814;48.550;9.108;2023-05-15T13:25:46;37.17;32.26;45.63;;
40103;Laerm;25814;48.550;9.108;2023-05-15T13:28:12;37.65;32.10;57.54;;
40103;Laerm;25814;48.550;9.108;2023-05-15T13:30:39;39.28;33.75;47.31;;
40103;Laerm;25814;48.550;9.108;2023-05-15T13:33:07;41.69;33.94;54.06;;
40103;Laerm;25814;48.550;9.108;2023-05-15T13:35:36;43.01;31.05;63.40;;
40103;Laerm;25814;48.550;9.108;2023-05-15T13:38:02;44.79;31.32;62.11;;
40103;Laerm;25814;48.550;9.108;2023-05-15T13:40:29;43.39;32.37;55.51;;
40103;Laerm;25814;48.550;9.108;2023-05-15T13:42:57;50.23;34.31;59.39;;
40103;Laerm;25814;48.550;9.108;2023-05-15T13:45:24;50.45;34.81;64.90;;
40103;Laerm;25814;48.550;9.108;2023-05-15T13:47:50;52.67;34.18;62.64;;
40103;Laerm;25814;48.550;9.108;2023-05-15T13:50:16;47.95;34.39;62.40;;
40103;Laerm;25814;48.550;9.108;2023-05-15T13:52:44;47.03;31.19;63.47;;
40103;Laerm;25814;48.550;9.108;2023-05-15T13:55:10;36.96;30.89;52.62;;
40103;Laerm;25814;48.550;9.108;2023-05-15T13:57:39;39.38;32.21;49.27;;
40103;Laerm;25814;48.550;9.108;2023-05-15T14:00:08;40.78;31.89;56.25;;
40103;Laerm;25814;48.550;9.108;2023-05-15T14:02:38;38.29;31.28;49.90;;
40103;Laerm;25814;48.550;9.108;2023-05-15T14:05:07;37.75;31.78;52.88;;
40103;Laerm;25814;48.550;9.108;2023-05-15T14:07:34;37.69;32.30;45.26;;
40103;Laerm;25814;48.550;9.108;2023-05-15T14:10:00;37.26;32.59;50.42;;
40103;Laerm;25814;48.550;9.108;2023-05-15T14:12:27;43.30;33.85;56.50;;
40103;Laerm;25814;48.550;9.108;2023-05-15T14:14:54;47.33;33.55;63.00;;
40103;Laerm;25814;48.550;9.108;2023-05-15T14:17:23;38.74;34.07;53.60;;
40103;Laerm;25814;48.550;9.108;2023-05-15T14:19:50;43.56;35.43;60.95;;
40103;Laerm;25814;48.550;9.108;2023-05-15T14:22:16;43.00;34.81;58.44;;
40103;Laerm;25814;48.550;9.108;2023-05-15T14:24:43;38.45;33.31;49.57;;